sensor_id;sensor_type;location;lat;lon;timestamp;P1;durP1;ratioP1;P2;durP2;ratioP2
45694;SDS011;31408;45.468;9.124;2022-11-20T00:00:52;34.28;;;18.73;;
45694;SDS011;31408;45.468;9.124;2022-11-20T00:03:18;33.15;;;16.63;;
45694;SDS011;31408;45.468;9.124;2022-11-20T00:05:43;36.58;;;17.30;;
45694;SDS011;31408;45.468;9.124;2022-11-20T00:08:09;35.05;;;16.77;;
45694;SDS011;31408;45.468;9.124;2022-11-20T00:10:36;36.53;;;16.60;;
45694;SDS011;31408;45.468;9.124;2022-11-20T00:13:04;33.80;;;16.88;;
45694;SDS011;31408;45.468;9.124;2022-11-20T00:15:30;40.95;;;19.08;;
45694;SDS011;31408;45.468;9.124;2022-11-20T00:17:56;33.45;;;16.90;;
45694;SDS011;31408;45.468;9.124;2022-11-20T00:20:21;40.15;;;16.70;;
45694;SDS011;31408;45.468;9.124;2022-11-20T00:22:47;37.35;;;17.30;;
45694;SDS011;31408;45.468;9.124;2022-11-20T00:25:12;37.72;;;17.30;;
45694;SDS011;31408;45.468;9.124;2022-11-20T00:27:38;45.78;;;18.88;;
45694;SDS011;31408;45.468;9.124;2022-11-20T00:30:04;36.55;;;16.50;;
45694;SDS011;31408;45.468;9.124;2022-11-20T00:32:30;37.35;;;18.02;;
45694;SDS011;31408;45.468;9.124;2022-11-20T00:35:00;34.05;;;16.63;;
45694;SDS011;31408;45.468;9.124;2022-11-20T00:37:26;39.80;;;17.88;;
45694;SDS011;31408;45.468;9.124;2022-11-20T00:39:51;33.30;;;15.88;;
45694;SDS011;31408;45.468;9.124;2022-11-20T00:42:17;36.38;;;16.70;;
45694;SDS011;31408;45.468;9.124;2022-11-20T00:44:42;38.60;;;17.52;;
45694;SDS011;31408;45.468;9.124;2022-11-20T00:47:08;37.78;;;18.35;;
45694;SDS011;31408;45.468;9.124;2022-11-20T00:49:33;39.85;;;19.23;;
45694;SDS011;31408;45.468;9.124;2022-11-20T00:51:59;32.85;;;16.65;;
45694;SDS011;31408;45.468;9.124;2022-11-20T00:54:34;33.35;;;16.30;;
45694;SDS011;31408;45.468;9.124;2022-11-20T00:57:00;34.22;;;16.25;;
45694;SDS011;31408;45.468;9.124;2022-11-20T00:59:25;34.90;;;15.80;;
45694;SDS011;31408;45.468;9.124;2022-11-20T01:01:51;32.17;;;14.40;;
45694;SDS011;31408;45.468;9.124;2022-11-20T01:04:16;31.98;;;14.68;;
45694;SDS011;31408;45.468;9.124;2022-11-20T01:06:42;29.42;;;14.65;;
45694;SDS011;31408;45.468;9.124;2022-11-20T01:09:11;28.85;;;13.00;;
45694;SDS011;31408;45.468;9.124;2022-11-20T01:11:39;29.05;;;13.40;;
45694;SDS011;31408;45.468;9.124;2022-11-20T01:14:07;30.10;;;13.00;;
45694;SDS011;31408;45.468;9.124;2022-11-20T01:16:36;32.88;;;14.85;;
45694;SDS011;31408;45.468;9.124;2022-11-20T01:19:04;30.23;;;14.38;;
45694;SDS011;31408;45.468;9.124;2022-11-20T01:21:35;29.80;;;14.75;;
45694;SDS011;31408;45.468;9.124;2022-11-20T01:24:09;32.28;;;13.75;;
45694;SDS011;31408;45.468;9.124;2022-11-20T01:26:37;24.05;;;12.20;;
45694;SDS011;31408;45.468;9.124;2022-11-20T01:29:03;28.70;;;12.85;;
45694;SDS011;31408;45.468;9.124;2022-11-20T01:31:30;26.70;;;13.50;;
45694;SDS011;31408;45.468;9.124;2022-11-20T01:33:59;30.27;;;14.13;;
45694;SDS011;31408;45.468;9.124;2022-11-20T01:36:26;32.95;;;13.50;;
45694;SDS011;31408;45.468;9.124;2022-11-20T01:38:53;29.48;;;13.82;;
45694;SDS011;31408;45.468;9.124;2022-11-20T01:41:23;32.25;;;13.40;;
45694;SDS011;31408;45.468;9.124;2022-11-20T01:44:09;28.88;;;13.13;;
45694;SDS011;31408;45.468;9.124;2022-11-20T01:46:36;30.73;;;13.18;;
45694;SDS011;31408;45.468;9.124;2022-11-20T01:49:15;26.85;;;12.15;;
45694;SDS011;31408;45.468;9.124;2022-11-20T01:51:45;27.08;;;12.27;;
45694;SDS011;31408;45.468;9.124;2022-11-20T01:54:16;29.65;;;12.98;;
45694;SDS011;31408;45.468;9.124;2022-11-20T01:56:44;25.67;;;13.02;;
45694;SDS011;31408;45.468;9.124;2022-11-20T01:59:10;27.08;;;12.93;;
45694;SDS011;31408;45.468;9.124;2022-11-20T02:01:39;27.98;;;11.65;;
45694;SDS011;31408;45.468;9.124;2022-11-20T02:04:04;30.60;;;12.23;;
45694;SDS011;31408;45.468;9.124;2022-11-20T02:06:31;33.60;;;14.93;;
45694;SDS011;31408;45.468;9.124;2022-11-20T02:09:00;25.88;;;13.38;;
45694;SDS011;31408;45.468;9.124;2022-11-20T02:11:25;30.65;;;13.02;;
45694;SDS011;31408;45.468;9.124;2022-11-20T02:13:51;31.10;;;14.02;;
45694;SDS011;31408;45.468;9.124;2022-11-20T02:16:24;28.52;;;12.40;;
45694;SDS011;31408;45.468;9.124;2022-11-20T02:18:51;27.23;;;13.27;;
45694;SDS011;31408;45.468;9.124;2022-11-20T02:21:20;33.55;;;14.27;;
45694;SDS011;31408;45.468;9.124;2022-11-20T02:26:26;26.17;;;12.13;;
45694;SDS011;31408;45.468;9.124;2022-11-20T02:28:53;27.27;;;12.65;;
45694;SDS011;31408;45.468;9.124;2022-11-20T02:31:19;28.40;;;12.68;;
45694;SDS011;31408;45.468;9.124;2022-11-20T02:33:45;29.70;;;12.57;;
45694;SDS011;31408;45.468;9.124;2022-11-20T02:36:11;27.00;;;11.85;;
45694;SDS011;31408;45.468;9.124;2022-11-20T02:38:40;27.77;;;12.25;;
45694;SDS011;31408;45.468;9.124;2022-11-20T02:41:05;29.30;;;13.73;;
45694;SDS011;31408;45.468;9.124;2022-11-20T02:43:30;32.35;;;13.27;;
45694;SDS011;31408;45.468;9.124;2022-11-20T02:45:56;27.30;;;11.88;;
45694;SDS011;31408;45.468;9.124;2022-11-20T02:48:21;26.52;;;12.70;;
45694;SDS011;31408;45.468;9.124;2022-11-20T02:50:47;26.15;;;12.50;;
45694;SDS011;31408;45.468;9.124;2022-11-20T02:53:12;28.02;;;12.52;;
45694;SDS011;31408;45.468;9.124;2022-11-20T02:55:38;30.45;;;13.00;;
45694;SDS011;31408;45.468;9.124;2022-11-20T02:58:03;33.53;;;14.65;;
45694;SDS011;31408;45.468;9.124;2022-11-20T03:00:29;29.25;;;13.38;;
45694;SDS011;31408;45.468;9.124;2022-11-20T03:02:54;33.70;;;13.95;;
45694;SDS011;31408;45.468;9.124;2022-11-20T03:05:25;26.00;;;12.52;;
45694;SDS011;31408;45.468;9.124;2022-11-20T03:07:50;28.35;;;13.02;;
45694;SDS011;31408;45.468;9.124;2022-11-20T03:10:19;26.23;;;12.38;;
45694;SDS011;31408;45.468;9.124;2022-11-20T03:12:44;28.95;;;13.93;;
45694;SDS011;31408;45.468;9.124;2022-11-20T03:15:15;31.13;;;14.15;;
45694;SDS011;31408;45.468;9.124;2022-11-20T03:17:41;29.85;;;12.88;;
45694;SDS011;31408;45.468;9.124;2022-11-20T03:20:06;30.25;;;13.35;;
45694;SDS011;31408;45.468;9.124;2022-11-20T03:22:32;26.65;;;13.63;;
45694;SDS011;31408;45.468;9.124;2022-11-20T03:24:58;26.35;;;12.02;;
45694;SDS011;31408;45.468;9.124;2022-11-20T03:27:23;25.52;;;12.50;;
45694;SDS011;31408;45.468;9.124;2022-11-20T03:29:49;30.98;;;14.07;;
45694;SDS011;31408;45.468;9.124;2022-11-20T03:32:14;28.60;;;12.43;;
45694;SDS011;31408;45.468;9.124;2022-11-20T03:34:45;28.70;;;13.63;;
45694;SDS011;31408;45.468;9.124;2022-11-20T03:37:10;27.48;;;12.38;;
45694;SDS011;31408;45.468;9.124;2022-11-20T03:39:35;25.45;;;11.80;;
45694;SDS011;31408;45.468;9.124;2022-11-20T03:42:01;27.95;;;12.73;;
45694;SDS011;31408;45.468;9.124;2022-11-20T03:44:26;26.67;;;12.00;;
45694;SDS011;31408;45.468;9.124;2022-11-20T03:46:52;30.35;;;12.45;;
45694;SDS011;31408;45.468;9.124;2022-11-20T03:49:17;24.00;;;10.98;;
45694;SDS011;31408;45.468;9.124;2022-11-20T03:51:43;23.50;;;11.60;;
45694;SDS011;31408;45.468;9.124;2022-11-20T03:54:13;28.20;;;12.15;;
45694;SDS011;31408;45.468;9.124;2022-11-20T03:56:39;29.90;;;12.65;;
45694;SDS011;31408;45.468;9.124;2022-11-20T03:59:04;30.17;;;12.05;;
45694;SDS011;31408;45.468;9.124;2022-11-20T04:01:31;23.92;;;11.52;;
45694;SDS011;31408;45.468;9.124;2022-11-20T04:03:58;23.15;;;11.20;;
45694;SDS011;31408;45.468;9.124;2022-11-20T04:06:24;29.17;;;12.43;;
45694;SDS011;31408;45.468;9.124;2022-11-20T04:08:50;29.52;;;11.85;;
45694;SDS011;31408;45.468;9.124;2022-11-20T04:11:17;26.48;;;11.10;;
45694;SDS011;31408;45.468;9.124;2022-11-20T04:13:48;27.38;;;13.18;;
45694;SDS011;31408;45.468;9.124;2022-11-20T04:16:15;25.35;;;12.98;;
45694;SDS011;31408;45.468;9.124;2022-11-20T04:18:40;26.80;;;12.27;;
45694;SDS011;31408;45.468;9.124;2022-11-20T04:21:06;21.92;;;10.57;;
45694;SDS011;31408;45.468;9.124;2022-11-20T04:23:32;26.35;;;11.80;;
45694;SDS011;31408;45.468;9.124;2022-11-20T04:26:02;25.92;;;12.10;;
45694;SDS011;31408;45.468;9.124;2022-11-20T04:28:31;24.05;;;11.75;;
45694;SDS011;31408;45.468;9.124;2022-11-20T04:31:14;25.42;;;12.52;;
45694;SDS011;31408;45.468;9.124;2022-11-20T04:33:41;29.08;;;12.23;;
45694;SDS011;31408;45.468;9.124;2022-11-20T04:36:14;28.02;;;11.73;;
45694;SDS011;31408;45.468;9.124;2022-11-20T04:38:40;23.42;;;10.60;;
45694;SDS011;31408;45.468;9.124;2022-11-20T04:41:07;25.10;;;12.05;;
45694;SDS011;31408;45.468;9.124;2022-11-20T04:43:34;24.15;;;10.68;;
45694;SDS011;31408;45.468;9.124;2022-11-20T04:45:59;26.23;;;10.85;;
45694;SDS011;31408;45.468;9.124;2022-11-20T04:48:27;23.77;;;12.07;;
45694;SDS011;31408;45.468;9.124;2022-11-20T04:50:53;24.10;;;12.48;;
45694;SDS011;31408;45.468;9.124;2022-11-20T04:53:19;22.33;;;10.50;;
45694;SDS011;31408;45.468;9.124;2022-11-20T04:55:45;28.38;;;10.32;;
45694;SDS011;31408;45.468;9.124;2022-11-20T04:58:11;28.77;;;11.50;;
45694;SDS011;31408;45.468;9.124;2022-11-20T05:00:37;25.00;;;11.70;;
45694;SDS011;31408;45.468;9.124;2022-11-20T05:03:03;23.20;;;11.30;;
45694;SDS011;31408;45.468;9.124;2022-11-20T05:05:29;19.80;;;9.60;;
45694;SDS011;31408;45.468;9.124;2022-11-20T05:07:58;26.48;;;11.23;;
45694;SDS011;31408;45.468;9.124;2022-11-20T05:10:24;21.63;;;10.07;;
45694;SDS011;31408;45.468;9.124;2022-11-20T05:12:50;22.75;;;10.07;;
45694;SDS011;31408;45.468;9.124;2022-11-20T05:15:16;21.38;;;11.00;;
45694;SDS011;31408;45.468;9.124;2022-11-20T05:17:46;21.63;;;10.60;;
45694;SDS011;31408;45.468;9.124;2022-11-20T05:22:40;19.42;;;9.32;;
45694;SDS011;31408;45.468;9.124;2022-11-20T05:25:05;23.55;;;10.50;;
45694;SDS011;31408;45.468;9.124;2022-11-20T05:27:31;21.55;;;9.98;;
45694;SDS011;31408;45.468;9.124;2022-11-20T05:29:57;21.15;;;10.85;;
45694;SDS011;31408;45.468;9.124;2022-11-20T05:32:22;23.65;;;10.27;;
45694;SDS011;31408;45.468;9.124;2022-11-20T05:34:50;27.42;;;11.25;;
45694;SDS011;31408;45.468;9.124;2022-11-20T05:37:16;22.85;;;9.63;;
45694;SDS011;31408;45.468;9.124;2022-11-20T05:39:42;21.35;;;10.40;;
45694;SDS011;31408;45.468;9.124;2022-11-20T05:42:07;23.48;;;9.82;;
45694;SDS011;31408;45.468;9.124;2022-11-20T05:44:51;19.20;;;9.10;;
45694;SDS011;31408;45.468;9.124;2022-11-20T05:47:17;19.83;;;9.57;;
45694;SDS011;31408;45.468;9.124;2022-11-20T05:49:42;20.52;;;10.48;;
45694;SDS011;31408;45.468;9.124;2022-11-20T05:52:08;26.25;;;11.05;;
45694;SDS011;31408;45.468;9.124;2022-11-20T05:54:43;19.83;;;9.23;;
45694;SDS011;31408;45.468;9.124;2022-11-20T05:57:08;22.73;;;10.98;;
45694;SDS011;31408;45.468;9.124;2022-11-20T05:59:34;18.20;;;8.68;;
45694;SDS011;31408;45.468;9.124;2022-11-20T06:01:59;21.55;;;9.30;;
45694;SDS011;31408;45.468;9.124;2022-11-20T06:04:30;23.42;;;10.15;;
45694;SDS011;31408;45.468;9.124;2022-11-20T06:06:55;25.85;;;11.48;;
45694;SDS011;31408;45.468;9.124;2022-11-20T06:09:21;19.63;;;8.77;;
45694;SDS011;31408;45.468;9.124;2022-11-20T06:11:46;24.30;;;8.57;;
45694;SDS011;31408;45.468;9.124;2022-11-20T06:14:12;17.67;;;8.90;;
45694;SDS011;31408;45.468;9.124;2022-11-20T06:16:37;22.73;;;9.63;;
45694;SDS011;31408;45.468;9.124;2022-11-20T06:19:03;18.85;;;9.07;;
45694;SDS011;31408;45.468;9.124;2022-11-20T06:21:28;23.38;;;8.80;;
45694;SDS011;31408;45.468;9.124;2022-11-20T06:23:58;21.77;;;9.35;;
45694;SDS011;31408;45.468;9.124;2022-11-20T06:26:25;18.98;;;8.13;;
45694;SDS011;31408;45.468;9.124;2022-11-20T06:28:51;18.63;;;8.38;;
45694;SDS011;31408;45.468;9.124;2022-11-20T06:31:18;19.60;;;8.25;;
45694;SDS011;31408;45.468;9.124;2022-11-20T06:33:45;20.48;;;8.60;;
45694;SDS011;31408;45.468;9.124;2022-11-20T06:36:12;21.92;;;9.18;;
45694;SDS011;31408;45.468;9.124;2022-11-20T06:38:38;18.95;;;8.73;;
45694;SDS011;31408;45.468;9.124;2022-11-20T06:41:05;15.52;;;7.97;;
45694;SDS011;31408;45.468;9.124;2022-11-20T06:46:17;18.48;;;8.70;;
45694;SDS011;31408;45.468;9.124;2022-11-20T06:48:46;16.70;;;8.32;;
45694;SDS011;31408;45.468;9.124;2022-11-20T06:51:12;20.20;;;8.30;;
45694;SDS011;31408;45.468;9.124;2022-11-20T06:53:38;31.08;;;8.57;;
45694;SDS011;31408;45.468;9.124;2022-11-20T06:56:04;18.08;;;8.93;;
45694;SDS011;31408;45.468;9.124;2022-11-20T06:58:33;19.75;;;8.20;;
45694;SDS011;31408;45.468;9.124;2022-11-20T07:01:00;19.17;;;8.75;;
45694;SDS011;31408;45.468;9.124;2022-11-20T07:03:37;19.75;;;8.40;;
45694;SDS011;31408;45.468;9.124;2022-11-20T07:06:03;19.63;;;9.48;;
45694;SDS011;31408;45.468;9.124;2022-11-20T07:08:29;24.45;;;10.45;;
45694;SDS011;31408;45.468;9.124;2022-11-20T07:10:59;25.10;;;10.23;;
45694;SDS011;31408;45.468;9.124;2022-11-20T07:13:35;19.50;;;9.05;;
45694;SDS011;31408;45.468;9.124;2022-11-20T07:16:01;17.65;;;8.52;;
45694;SDS011;31408;45.468;9.124;2022-11-20T07:18:28;18.73;;;9.02;;
45694;SDS011;31408;45.468;9.124;2022-11-20T07:20:54;21.88;;;10.95;;
45694;SDS011;31408;45.468;9.124;2022-11-20T07:23:25;26.27;;;9.98;;
45694;SDS011;31408;45.468;9.124;2022-11-20T07:25:50;22.48;;;10.18;;
45694;SDS011;31408;45.468;9.124;2022-11-20T07:28:16;21.38;;;9.75;;
45694;SDS011;31408;45.468;9.124;2022-11-20T07:30:41;20.33;;;9.98;;
45694;SDS011;31408;45.468;9.124;2022-11-20T07:33:07;23.88;;;10.57;;
45694;SDS011;31408;45.468;9.124;2022-11-20T07:35:32;19.92;;;9.30;;
45694;SDS011;31408;45.468;9.124;2022-11-20T07:37:58;18.70;;;8.85;;
45694;SDS011;31408;45.468;9.124;2022-11-20T07:40:23;19.13;;;9.80;;
45694;SDS011;31408;45.468;9.124;2022-11-20T07:42:49;21.60;;;9.43;;
45694;SDS011;31408;45.468;9.124;2022-11-20T07:45:21;18.77;;;8.57;;
45694;SDS011;31408;45.468;9.124;2022-11-20T07:47:48;17.95;;;9.00;;
45694;SDS011;31408;45.468;9.124;2022-11-20T07:50:13;17.23;;;7.45;;
45694;SDS011;31408;45.468;9.124;2022-11-20T07:52:39;15.70;;;7.47;;
45694;SDS011;31408;45.468;9.124;2022-11-20T07:55:05;20.45;;;8.32;;
45694;SDS011;31408;45.468;9.124;2022-11-20T07:57:32;15.55;;;8.07;;
45694;SDS011;31408;45.468;9.124;2022-11-20T07:59:57;18.27;;;8.10;;
45694;SDS011;31408;45.468;9.124;2022-11-20T08:02:22;17.08;;;8.10;;
45694;SDS011;31408;45.468;9.124;2022-11-20T08:05:03;19.35;;;7.68;;
45694;SDS011;31408;45.468;9.124;2022-11-20T08:07:29;14.05;;;7.50;;
45694;SDS011;31408;45.468;9.124;2022-11-20T08:09:54;19.40;;;7.75;;
45694;SDS011;31408;45.468;9.124;2022-11-20T08:12:20;14.02;;;7.50;;
45694;SDS011;31408;45.468;9.124;2022-11-20T08:15:08;15.45;;;7.55;;
45694;SDS011;31408;45.468;9.124;2022-11-20T08:17:34;15.63;;;6.70;;
45694;SDS011;31408;45.468;9.124;2022-11-20T08:19:59;12.50;;;6.10;;
45694;SDS011;31408;45.468;9.124;2022-11-20T08:22:24;13.50;;;6.55;;
45694;SDS011;31408;45.468;9.124;2022-11-20T08:25:00;13.05;;;6.65;;
45694;SDS011;31408;45.468;9.124;2022-11-20T08:27:25;16.65;;;7.10;;
45694;SDS011;31408;45.468;9.124;2022-11-20T08:29:51;13.85;;;5.68;;
45694;SDS011;31408;45.468;9.124;2022-11-20T08:32:16;14.35;;;6.68;;
45694;SDS011;31408;45.468;9.124;2022-11-20T08:34:47;9.30;;;5.18;;
45694;SDS011;31408;45.468;9.124;2022-11-20T08:37:12;12.07;;;6.25;;
45694;SDS011;31408;45.468;9.124;2022-11-20T08:39:38;10.45;;;5.65;;
45694;SDS011;31408;45.468;9.124;2022-11-20T08:42:06;12.45;;;5.05;;
45694;SDS011;31408;45.468;9.124;2022-11-20T08:44:33;12.60;;;5.50;;
45694;SDS011;31408;45.468;9.124;2022-11-20T08:46:58;9.07;;;4.78;;
45694;SDS011;31408;45.468;9.124;2022-11-20T08:49:23;8.65;;;4.75;;
45694;SDS011;31408;45.468;9.124;2022-11-20T08:51:49;10.93;;;5.97;;
45694;SDS011;31408;45.468;9.124;2022-11-20T08:54:18;9.38;;;4.25;;
45694;SDS011;31408;45.468;9.124;2022-11-20T08:56:46;10.70;;;3.72;;
45694;SDS011;31408;45.468;9.124;2022-11-20T08:59:12;8.30;;;4.40;;
45694;SDS011;31408;45.468;9.124;2022-11-20T09:01:38;7.18;;;4.82;;
45694;SDS011;31408;45.468;9.124;2022-11-20T09:04:04;11.77;;;4.95;;
45694;SDS011;31408;45.468;9.124;2022-11-20T09:06:29;9.15;;;4.85;;
45694;SDS011;31408;45.468;9.124;2022-11-20T09:08:55;10.27;;;5.35;;
45694;SDS011;31408;45.468;9.124;2022-11-20T09:11:22;8.60;;;5.07;;
45694;SDS011;31408;45.468;9.124;2022-11-20T09:13:52;7.72;;;4.13;;
45694;SDS011;31408;45.468;9.124;2022-11-20T09:16:18;10.00;;;4.90;;
45694;SDS011;31408;45.468;9.124;2022-11-20T09:18:43;13.05;;;6.05;;
45694;SDS011;31408;45.468;9.124;2022-11-20T09:21:09;13.35;;;5.95;;
45694;SDS011;31408;45.468;9.124;2022-11-20T09:23:41;12.82;;;5.38;;
45694;SDS011;31408;45.468;9.124;2022-11-20T09:26:08;6.63;;;4.32;;
45694;SDS011;31408;45.468;9.124;2022-11-20T09:28:35;6.05;;;3.97;;
45694;SDS011;31408;45.468;9.124;2022-11-20T09:31:04;7.00;;;3.83;;
45694;SDS011;31408;45.468;9.124;2022-11-20T09:33:31;5.95;;;4.22;;
45694;SDS011;31408;45.468;9.124;2022-11-20T09:35:56;8.60;;;4.25;;
45694;SDS011;31408;45.468;9.124;2022-11-20T09:38:21;4.95;;;3.60;;
45694;SDS011;31408;45.468;9.124;2022-11-20T09:40:51;5.95;;;4.05;;
45694;SDS011;31408;45.468;9.124;2022-11-20T09:56:50;8.70;;;4.25;;
45694;SDS011;31408;45.468;9.124;2022-11-20T10:02:02;7.63;;;3.90;;
45694;SDS011;31408;45.468;9.124;2022-11-20T10:04:33;7.18;;;3.35;;
45694;SDS011;31408;45.468;9.124;2022-11-20T10:07:04;8.15;;;3.30;;
45694;SDS011;31408;45.468;9.124;2022-11-20T10:09:31;6.00;;;3.08;;
45694;SDS011;31408;45.468;9.124;2022-11-20T10:25:40;6.07;;;3.03;;
45694;SDS011;31408;45.468;9.124;2022-11-20T10:34:12;9.13;;;3.83;;
45694;SDS011;31408;45.468;9.124;2022-11-20T10:36:55;9.32;;;3.78;;
45694;SDS011;31408;45.468;9.124;2022-11-20T10:39:36;9.07;;;4.22;;
45694;SDS011;31408;45.468;9.124;2022-11-20T10:42:14;6.78;;;3.45;;
45694;SDS011;31408;45.468;9.124;2022-11-20T10:44:43;8.55;;;3.92;;
45694;SDS011;31408;45.468;9.124;2022-11-20T10:49:52;8.95;;;4.40;;
45694;SDS011;31408;45.468;9.124;2022-11-20T10:55:29;11.27;;;5.65;;
45694;SDS011;31408;45.468;9.124;2022-11-20T11:00:32;14.35;;;7.38;;
45694;SDS011;31408;45.468;9.124;2022-11-20T11:02:58;16.48;;;7.03;;
45694;SDS011;31408;45.468;9.124;2022-11-20T11:05:34;14.43;;;7.45;;
45694;SDS011;31408;45.468;9.124;2022-11-20T11:08:03;13.63;;;6.72;;
45694;SDS011;31408;45.468;9.124;2022-11-20T11:10:33;12.15;;;6.32;;
45694;SDS011;31408;45.468;9.124;2022-11-20T11:13:03;14.55;;;7.05;;
45694;SDS011;31408;45.468;9.124;2022-11-20T11:18:29;16.02;;;7.00;;
45694;SDS011;31408;45.468;9.124;2022-11-20T11:20:57;14.90;;;6.72;;
45694;SDS011;31408;45.468;9.124;2022-11-20T11:28:24;9.57;;;5.18;;
45694;SDS011;31408;45.468;9.124;2022-11-20T11:30:51;11.23;;;6.13;;
45694;SDS011;31408;45.468;9.124;2022-11-20T11:33:23;10.40;;;5.70;;
45694;SDS011;31408;45.468;9.124;2022-11-20T11:35:52;11.50;;;6.13;;
45694;SDS011;31408;45.468;9.124;2022-11-20T11:38:38;12.75;;;6.10;;
45694;SDS011;31408;45.468;9.124;2022-11-20T11:41:06;13.77;;;6.15;;
45694;SDS011;31408;45.468;9.124;2022-11-20T11:43:33;13.40;;;5.30;;
45694;SDS011;31408;45.468;9.124;2022-11-20T11:49:01;10.55;;;4.63;;
45694;SDS011;31408;45.468;9.124;2022-11-20T11:52:24;10.77;;;5.15;;
45694;SDS011;31408;45.468;9.124;2022-11-20T11:57:07;10.93;;;5.07;;
45694;SDS011;31408;45.468;9.124;2022-11-20T11:59:47;11.35;;;5.60;;
45694;SDS011;31408;45.468;9.124;2022-11-20T12:02:32;11.20;;;5.15;;
45694;SDS011;31408;45.468;9.124;2022-11-20T12:05:21;12.80;;;5.68;;
45694;SDS011;31408;45.468;9.124;2022-11-20T12:12:53;11.85;;;5.28;;
45694;SDS011;31408;45.468;9.124;2022-11-20T12:15:31;9.48;;;5.50;;
45694;SDS011;31408;45.468;9.124;2022-11-20T12:17:58;8.00;;;4.68;;
45694;SDS011;31408;45.468;9.124;2022-11-20T12:20:25;9.68;;;4.38;;
45694;SDS011;31408;45.468;9.124;2022-11-20T12:23:02;9.73;;;4.78;;
45694;SDS011;31408;45.468;9.124;2022-11-20T12:25:43;10.88;;;4.32;;
45694;SDS011;31408;45.468;9.124;2022-11-20T12:31:17;10.52;;;4.15;;
45694;SDS011;31408;45.468;9.124;2022-11-20T12:33:56;9.70;;;4.75;;
45694;SDS011;31408;45.468;9.124;2022-11-20T12:36:32;8.98;;;4.28;;
45694;SDS011;31408;45.468;9.124;2022-11-20T12:39:07;14.80;;;5.35;;
45694;SDS011;31408;45.468;9.124;2022-11-20T12:53:22;8.48;;;3.33;;
45694;SDS011;31408;45.468;9.124;2022-11-20T13:01:56;6.57;;;3.80;;
45694;SDS011;31408;45.468;9.124;2022-11-20T13:04:41;7.32;;;3.83;;
45694;SDS011;31408;45.468;9.124;2022-11-20T13:07:09;6.82;;;3.10;;
45694;SDS011;31408;45.468;9.124;2022-11-20T13:09:42;6.95;;;3.60;;
45694;SDS011;31408;45.468;9.124;2022-11-20T13:12:23;8.85;;;3.53;;
45694;SDS011;31408;45.468;9.124;2022-11-20T13:17:58;7.23;;;3.10;;
45694;SDS011;31408;45.468;9.124;2022-11-20T13:20:25;6.80;;;3.08;;
45694;SDS011;31408;45.468;9.124;2022-11-20T13:22:53;5.75;;;3.40;;
45694;SDS011;31408;45.468;9.124;2022-11-20T13:30:35;4.38;;;2.55;;
45694;SDS011;31408;45.468;9.124;2022-11-20T13:33:07;7.30;;;3.38;;
45694;SDS011;31408;45.468;9.124;2022-11-20T13:35:34;3.65;;;2.28;;
45694;SDS011;31408;45.468;9.124;2022-11-20T13:38:08;4.45;;;2.38;;
45694;SDS011;31408;45.468;9.124;2022-11-20T13:40:36;9.35;;;2.55;;
45694;SDS011;31408;45.468;9.124;2022-11-20T13:43:23;4.78;;;2.42;;
45694;SDS011;31408;45.468;9.124;2022-11-20T13:46:04;4.22;;;2.42;;
45694;SDS011;31408;45.468;9.124;2022-11-20T13:48:38;4.13;;;2.78;;
45694;SDS011;31408;45.468;9.124;2022-11-20T13:51:50;4.97;;;2.30;;
45694;SDS011;31408;45.468;9.124;2022-11-20T14:00:13;2.80;;;1.55;;
45694;SDS011;31408;45.468;9.124;2022-11-20T14:02:41;3.03;;;1.83;;
45694;SDS011;31408;45.468;9.124;2022-11-20T14:05:14;2.28;;;1.52;;
45694;SDS011;31408;45.468;9.124;2022-11-20T14:07:44;3.00;;;1.80;;
45694;SDS011;31408;45.468;9.124;2022-11-20T14:10:21;1.50;;;1.38;;
45694;SDS011;31408;45.468;9.124;2022-11-20T14:12:48;3.88;;;1.88;;
45694;SDS011;31408;45.468;9.124;2022-11-20T14:15:34;2.40;;;1.70;;
45694;SDS011;31408;45.468;9.124;2022-11-20T14:18:10;1.80;;;1.38;;
45694;SDS011;31408;45.468;9.124;2022-11-20T14:20:37;5.28;;;2.58;;
45694;SDS011;31408;45.468;9.124;2022-11-20T14:23:03;3.50;;;2.08;;
45694;SDS011;31408;45.468;9.124;2022-11-20T14:25:30;4.30;;;2.33;;
45694;SDS011;31408;45.468;9.124;2022-11-20T14:27:57;2.60;;;1.77;;
45694;SDS011;31408;45.468;9.124;2022-11-20T14:30:24;5.85;;;2.40;;
45694;SDS011;31408;45.468;9.124;2022-11-20T14:32:51;3.88;;;2.65;;
45694;SDS011;31408;45.468;9.124;2022-11-20T14:38:00;6.18;;;2.70;;
45694;SDS011;31408;45.468;9.124;2022-11-20T14:42:56;4.80;;;2.40;;
45694;SDS011;31408;45.468;9.124;2022-11-20T14:45:23;7.53;;;2.60;;
45694;SDS011;31408;45.468;9.124;2022-11-20T14:47:50;4.78;;;2.63;;
45694;SDS011;31408;45.468;9.124;2022-11-20T14:50:27;7.57;;;3.15;;
45694;SDS011;31408;45.468;9.124;2022-11-20T14:52:54;7.20;;;2.25;;
45694;SDS011;31408;45.468;9.124;2022-11-20T14:55:32;5.53;;;2.35;;
45694;SDS011;31408;45.468;9.124;2022-11-20T14:58:02;6.15;;;2.80;;
45694;SDS011;31408;45.468;9.124;2022-11-20T15:00:30;5.63;;;2.28;;
45694;SDS011;31408;45.468;9.124;2022-11-20T15:02:57;9.77;;;3.97;;
45694;SDS011;31408;45.468;9.124;2022-11-20T15:05:24;5.78;;;2.80;;
45694;SDS011;31408;45.468;9.124;2022-11-20T15:08:03;5.10;;;2.35;;
45694;SDS011;31408;45.468;9.124;2022-11-20T15:10:33;6.25;;;2.80;;
45694;SDS011;31408;45.468;9.124;2022-11-20T15:13:00;9.02;;;3.22;;
45694;SDS011;31408;45.468;9.124;2022-11-20T15:15:32;3.70;;;2.22;;
45694;SDS011;31408;45.468;9.124;2022-11-20T15:18:01;5.47;;;2.30;;
45694;SDS011;31408;45.468;9.124;2022-11-20T15:20:29;6.70;;;2.38;;
45694;SDS011;31408;45.468;9.124;2022-11-20T15:22:58;5.35;;;2.78;;
45694;SDS011;31408;45.468;9.124;2022-11-20T15:25:23;7.38;;;3.20;;
45694;SDS011;31408;45.468;9.124;2022-11-20T15:27:51;7.03;;;2.90;;
45694;SDS011;31408;45.468;9.124;2022-11-20T15:30:20;7.53;;;3.00;;
45694;SDS011;31408;45.468;9.124;2022-11-20T15:32:46;8.82;;;2.95;;
45694;SDS011;31408;45.468;9.124;2022-11-20T15:35:17;7.70;;;2.88;;
45694;SDS011;31408;45.468;9.124;2022-11-20T15:37:43;5.88;;;2.80;;
45694;SDS011;31408;45.468;9.124;2022-11-20T15:40:09;7.60;;;2.45;;
45694;SDS011;31408;45.468;9.124;2022-11-20T15:42:35;3.92;;;2.60;;
45694;SDS011;31408;45.468;9.124;2022-11-20T15:45:00;9.48;;;3.30;;
45694;SDS011;31408;45.468;9.124;2022-11-20T15:47:28;7.47;;;3.15;;
45694;SDS011;31408;45.468;9.124;2022-11-20T15:49:57;7.07;;;3.15;;
45694;SDS011;31408;45.468;9.124;2022-11-20T15:52:23;9.75;;;4.18;;
45694;SDS011;31408;45.468;9.124;2022-11-20T15:54:49;7.38;;;3.15;;
45694;SDS011;31408;45.468;9.124;2022-11-20T15:57:17;8.88;;;4.07;;
45694;SDS011;31408;45.468;9.124;2022-11-20T15:59:42;8.07;;;3.13;;
45694;SDS011;31408;45.468;9.124;2022-11-20T16:02:09;7.32;;;2.88;;
45694;SDS011;31408;45.468;9.124;2022-11-20T16:04:36;7.93;;;3.42;;
45694;SDS011;31408;45.468;9.124;2022-11-20T16:07:02;6.93;;;3.55;;
45694;SDS011;31408;45.468;9.124;2022-11-20T16:09:27;7.28;;;3.20;;
45694;SDS011;31408;45.468;9.124;2022-11-20T16:11:53;8.82;;;3.20;;
45694;SDS011;31408;45.468;9.124;2022-11-20T16:14:19;8.00;;;4.20;;
45694;SDS011;31408;45.468;9.124;2022-11-20T16:17:06;7.28;;;3.35;;
45694;SDS011;31408;45.468;9.124;2022-11-20T16:19:58;7.35;;;3.03;;
45694;SDS011;31408;45.468;9.124;2022-11-20T16:22:23;5.18;;;2.88;;
45694;SDS011;31408;45.468;9.124;2022-11-20T16:24:48;18.65;;;4.50;;
45694;SDS011;31408;45.468;9.124;2022-11-20T16:27:14;8.00;;;3.72;;
45694;SDS011;31408;45.468;9.124;2022-11-20T16:29:43;5.78;;;3.35;;
45694;SDS011;31408;45.468;9.124;2022-11-20T16:32:08;9.93;;;3.80;;